Terminal Aerodrome Forecast
Issued by NWS

Current Version | Previous Version | Graphics & Text | Print | Product List | Glossary On
Versions: 1 2 3 4 5 6 7 8 9 10 11 12 13 14 15 16 17 18 19 20
000
FTUS41 KRNK 231145
TAFLWB
TAF
KLWB 231145Z 2312/2412 11005KT P6SM OVC100
     FM231700 12012KT P6SM OVC028
     FM232300 11015G22KT 5SM RA OVC015
     FM240600 06018G28KT P6SM -RA OVC022=

USA.gov is the U.S. government's official web portal to all federal, state and local government web resources and services.